Time;durP1;ratioP1;P1;durP2;ratioP2;P2;SDS_P1;SDS_P2;PMS_P1;PMS_P2;Temp;Humidity;BMP_temperature;BMP_pressure;BME280_temperature;BME280_humidity;BME280_pressure;Samples;Min_cycle;Max_cycle;Signal;HPM_P1;HPM_P2
2022/06/18 00:00:17;;;;;;;16.13;11.60;;;15.00;99.90;;;;;;5056078;28;20454;-77
2022/06/18 00:02:45;;;;;;;17.65;12.15;;;15.00;99.90;;;;;;5073529;28;20044;-77
2022/06/18 00:05:15;;;;;;;18.42;11.60;;;15.00;99.90;;;;;;5061354;28;20103;-78
2022/06/18 00:07:46;;;;;;;20.05;11.93;;;15.00;99.90;;;;;;5052603;28;20060;-77
2022/06/18 00:10:16;;;;;;;14.57;12.23;;;14.90;99.90;;;;;;5055279;28;20041;-77
2022/06/18 00:15:33;;;;;;;19.10;11.85;;;15.00;99.90;;;;;;5055625;28;20516;-77
2022/06/18 00:18:00;;;;;;;19.83;11.98;;;14.90;99.90;;;;;;5055102;28;20041;-77
2022/06/18 00:20:30;;;;;;;20.55;11.43;;;14.80;99.90;;;;;;5055328;28;20163;-77
2022/06/18 00:23:01;;;;;;;18.55;11.80;;;14.80;99.90;;;;;;5059371;28;20064;-77
2022/06/18 00:25:30;;;;;;;18.33;12.88;;;14.70;99.90;;;;;;5055194;28;20041;-77
2022/06/18 00:28:01;;;;;;;19.23;14.10;;;14.70;99.90;;;;;;5055521;28;20098;-78
2022/06/18 00:30:30;;;;;;;16.48;12.30;;;14.70;99.90;;;;;;5054961;28;20068;-77
2022/06/18 00:32:58;;;;;;;21.85;12.98;;;14.60;99.90;;;;;;5053261;28;20500;-77
2022/06/18 00:35:26;;;;;;;22.33;13.38;;;14.60;99.90;;;;;;5054014;28;20037;-77
2022/06/18 00:37:56;;;;;;;20.27;13.57;;;14.50;99.90;;;;;;5055216;28;20112;-77
2022/06/18 00:40:28;;;;;;;17.10;12.90;;;14.60;99.90;;;;;;5055355;28;20037;-77
2022/06/18 00:43:00;;;;;;;16.55;12.57;;;14.50;99.90;;;;;;5055179;28;20045;-77
2022/06/18 00:45:30;;;;;;;23.88;13.68;;;14.50;99.90;;;;;;5055763;28;20068;-77
2022/06/18 00:48:03;;;;;;;20.88;14.20;;;14.50;99.90;;;;;;5053246;28;20059;-77
2022/06/18 00:50:36;;;;;;;25.00;15.82;;;14.50;99.90;;;;;;5054503;28;20091;-78
2022/06/18 00:53:08;;;;;;;27.70;18.58;;;14.50;99.90;;;;;;5053415;28;20083;-77
2022/06/18 00:55:42;;;;;;;29.85;19.88;;;14.50;99.90;;;;;;5054251;28;20059;-77
2022/06/18 00:58:16;;;;;;;31.30;20.10;;;14.60;99.90;;;;;;5052716;28;20057;-77
2022/06/18 01:00:46;;;;;;;27.05;18.98;;;14.60;99.90;;;;;;5055538;28;20036;-76
2022/06/18 01:03:25;;;;;;;32.58;19.92;;;14.80;99.90;;;;;;5072650;28;20048;-75
2022/06/18 01:05:53;;;;;;;29.02;19.98;;;14.70;99.90;;;;;;5073163;28;20045;-76
2022/06/18 01:08:24;;;;;;;27.40;18.88;;;14.70;99.90;;;;;;5067374;28;20048;-77
2022/06/18 01:10:55;;;;;;;24.63;17.98;;;14.70;99.90;;;;;;5052740;28;20055;-77
2022/06/18 01:13:28;;;;;;;29.85;19.40;;;14.80;99.90;;;;;;5053048;28;20053;-77
2022/06/18 01:15:58;;;;;;;24.33;18.33;;;14.80;99.90;;;;;;5052714;28;20511;-76
2022/06/18 01:18:28;;;;;;;28.30;18.63;;;14.70;99.90;;;;;;5052663;28;20041;-76
2022/06/18 01:21:04;;;;;;;21.13;14.13;;;14.70;99.90;;;;;;5052721;28;20045;-77
2022/06/18 01:23:37;;;;;;;14.50;11.48;;;14.80;99.90;;;;;;5051385;28;20051;-77
2022/06/18 01:26:07;;;;;;;16.73;10.48;;;14.80;99.90;;;;;;5052486;28;20037;-76
2022/06/18 01:28:37;;;;;;;20.00;14.70;;;14.80;99.90;;;;;;5052313;28;20144;-77
2022/06/18 01:31:04;;;;;;;25.83;19.48;;;14.90;99.90;;;;;;5052052;28;20502;-76
2022/06/18 01:33:33;;;;;;;13.55;11.00;;;14.90;99.90;;;;;;5052040;28;20139;-77
2022/06/18 01:36:05;;;;;;;15.43;11.32;;;14.80;99.90;;;;;;5051808;28;20511;-77
2022/06/18 01:38:33;;;;;;;17.48;11.57;;;14.80;99.90;;;;;;5044073;28;20094;-76
2022/06/18 01:43:48;;;;;;;14.07;10.65;;;14.80;99.90;;;;;;5050727;28;20041;-77
2022/06/18 01:46:16;;;;;;;13.70;10.77;;;14.80;99.90;;;;;;5052252;28;20045;-77
2022/06/18 01:48:45;;;;;;;14.15;10.70;;;14.70;99.90;;;;;;5053290;28;20063;-77
2022/06/18 01:51:17;;;;;;;15.75;10.90;;;14.70;99.90;;;;;;5052771;28;20082;-76
2022/06/18 01:53:52;;;;;;;17.02;11.38;;;14.80;99.90;;;;;;5051646;28;20098;-77
2022/06/18 01:56:23;;;;;;;24.13;12.43;;;14.80;99.90;;;;;;5053279;28;20037;-76
2022/06/18 01:58:58;;;;;;;30.75;13.50;;;14.80;99.90;;;;;;5051764;28;20519;-77
2022/06/18 02:01:39;;;;;;;24.95;13.50;;;14.80;99.90;;;;;;5046171;28;20551;-76
2022/06/18 02:04:07;;;;;;;36.83;15.00;;;14.80;99.90;;;;;;5051384;28;20094;-76
2022/06/18 02:06:37;;;;;;;28.27;13.10;;;14.90;99.90;;;;;;5048577;28;20496;-77
2022/06/18 02:09:09;;;;;;;29.92;13.35;;;14.90;99.90;;;;;;5046587;28;20056;-77
2022/06/18 02:11:37;;;;;;;36.97;16.15;;;14.90;99.90;;;;;;5046273;28;20041;-77
2022/06/18 02:14:10;;;;;;;44.67;16.15;;;14.80;99.90;;;;;;5048041;28;20067;-77
2022/06/18 02:16:44;;;;;;;43.13;16.17;;;14.80;99.90;;;;;;5037693;28;20049;-77
2022/06/18 02:19:16;;;;;;;54.10;18.13;;;14.80;99.90;;;;;;5051928;28;20492;-77
2022/06/18 02:21:47;;;;;;;46.38;16.38;;;14.80;99.90;;;;;;5052425;28;20119;-77
2022/06/18 02:24:16;;;;;;;38.85;14.48;;;14.80;99.90;;;;;;5051811;28;20140;-77
2022/06/18 02:26:46;;;;;;;48.03;17.20;;;14.60;99.90;;;;;;5052269;28;20048;-77
2022/06/18 02:29:19;;;;;;;64.63;19.23;;;14.60;99.90;;;;;;5051837;28;20044;-77
2022/06/18 02:31:46;;;;;;;62.50;19.35;;;14.60;99.90;;;;;;5052317;28;20041;-77
2022/06/18 02:34:18;;;;;;;83.15;22.05;;;14.60;99.90;;;;;;5052972;28;20487;-77
2022/06/18 02:36:45;;;;;;;75.28;21.42;;;14.60;99.90;;;;;;5052359;28;20546;-77
2022/06/18 02:39:27;;;;;;;94.97;23.70;;;14.70;99.90;;;;;;5051728;28;20563;-77
2022/06/18 02:41:59;;;;;;;85.93;24.00;;;14.70;99.90;;;;;;5051497;28;20041;-77
2022/06/18 02:44:28;;;;;;;82.95;23.45;;;14.80;99.90;;;;;;5054447;28;20532;-77
2022/06/18 02:46:56;;;;;;;78.55;22.05;;;14.80;99.90;;;;;;5057351;28;20045;-77
2022/06/18 02:49:26;;;;;;;76.95;21.65;;;14.80;99.90;;;;;;5057269;28;20036;-77
2022/06/18 02:51:54;;;;;;;61.90;20.25;;;14.80;99.90;;;;;;5056654;28;20036;-77
2022/06/18 02:54:21;;;;;;;74.28;22.85;;;14.80;99.90;;;;;;5056663;28;20044;-77
2022/06/18 02:56:50;;;;;;;82.00;24.10;;;14.80;99.90;;;;;;5055042;28;20076;-77
2022/06/18 02:59:18;;;;;;;73.45;22.70;;;14.80;99.90;;;;;;5055229;28;20053;-77
2022/06/18 03:01:46;;;;;;;70.35;25.00;;;14.80;99.90;;;;;;5065345;28;20094;-77
2022/06/18 03:04:13;;;;;;;66.75;24.73;;;14.80;99.90;;;;;;5076452;28;20491;-77
2022/06/18 03:06:41;;;;;;;62.28;25.25;;;14.90;99.90;;;;;;5075385;28;20041;-77
2022/06/18 03:09:10;;;;;;;62.80;25.13;;;15.00;99.90;;;;;;5075075;28;20048;-77
2022/06/18 03:14:24;;;;;;;63.40;26.27;;;15.00;99.90;;;;;;5056543;28;20103;-77
2022/06/18 03:16:52;;;;;;;53.20;24.45;;;15.00;99.90;;;;;;5057645;28;20099;-77
2022/06/18 03:19:30;;;;;;;63.75;25.80;;;15.10;99.90;;;;;;5056926;28;20045;-77
2022/06/18 03:22:05;;;;;;;58.70;25.95;;;15.10;99.90;;;;;;5057233;28;20048;-77
2022/06/18 03:24:32;;;;;;;49.13;27.10;;;15.10;99.90;;;;;;5055998;28;20106;-77
2022/06/18 03:26:59;;;;;;;46.15;28.90;;;15.10;99.90;;;;;;5054740;28;20049;-76
2022/06/18 03:29:27;;;;;;;48.13;29.63;;;15.10;99.90;;;;;;5054441;28;20057;-77
2022/06/18 03:31:56;;;;;;;48.17;29.60;;;15.10;99.90;;;;;;5054023;28;20040;-77
2022/06/18 03:34:27;;;;;;;46.13;30.02;;;15.10;99.90;;;;;;5053939;28;20526;-76
2022/06/18 03:36:56;;;;;;;48.33;28.02;;;15.10;99.90;;;;;;5054359;28;20052;-77
2022/06/18 03:39:24;;;;;;;39.60;26.77;;;15.20;99.90;;;;;;5054237;28;20136;-76
2022/06/18 03:41:52;;;;;;;49.80;29.25;;;15.20;99.90;;;;;;5054346;28;20075;-77
2022/06/18 03:44:20;;;;;;;37.38;24.70;;;15.30;99.90;;;;;;5055286;28;20407;-77
2022/06/18 03:46:48;;;;;;;34.05;22.17;;;15.30;99.90;;;;;;5054394;28;20127;-77
2022/06/18 03:49:27;;;;;;;36.88;21.08;;;15.20;99.90;;;;;;5054098;28;20500;-76
2022/06/18 03:51:57;;;;;;;36.88;21.95;;;15.20;99.90;;;;;;5054212;28;20073;-77
2022/06/18 03:54:25;;;;;;;42.85;21.45;;;15.20;99.90;;;;;;5055043;28;20040;-76
2022/06/18 03:56:53;;;;;;;53.35;23.85;;;15.20;99.90;;;;;;5054373;28;20481;-77
2022/06/18 03:59:20;;;;;;;38.13;23.20;;;15.10;99.90;;;;;;5053753;28;20081;-77
2022/06/18 04:01:48;;;;;;;49.95;25.05;;;15.20;99.90;;;;;;5058732;28;20045;-77
2022/06/18 04:04:16;;;;;;;56.90;25.98;;;15.20;99.90;;;;;;5066173;28;20139;-76
2022/06/18 04:06:49;;;;;;;60.80;30.23;;;15.30;99.90;;;;;;5056488;28;20041;-77
2022/06/18 04:09:35;;;;;;;56.55;29.35;;;15.20;99.90;;;;;;5066045;28;20044;-76
2022/06/18 04:12:05;;;;;;;55.45;30.10;;;15.30;99.90;;;;;;5063910;28;20044;-77
2022/06/18 04:14:48;;;;;;;53.65;30.13;;;15.30;99.90;;;;;;5068986;28;20048;-75
2022/06/18 04:17:33;;;;;;;53.70;29.05;;;15.40;99.90;;;;;;5057626;28;20055;-76
2022/06/18 04:20:01;;;;;;;50.40;28.05;;;15.50;99.90;;;;;;5053875;28;20095;-76
2022/06/18 04:22:29;;;;;;;47.15;27.10;;;15.50;99.90;;;;;;5054279;28;20484;-77
2022/06/18 04:25:04;;;;;;;48.95;27.88;;;15.60;99.90;;;;;;5054121;28;20048;-77
2022/06/18 04:27:31;;;;;;;53.95;28.45;;;15.60;99.90;;;;;;5053206;28;20053;-77
2022/06/18 04:29:59;;;;;;;48.17;27.85;;;15.60;99.90;;;;;;5056295;28;20048;-75
2022/06/18 04:32:47;;;;;;;47.85;29.63;;;15.60;99.90;;;;;;5054040;28;20056;-77
2022/06/18 04:35:14;;;;;;;52.78;31.40;;;15.50;99.90;;;;;;5056205;28;20056;-76
2022/06/18 04:37:56;;;;;;;55.40;32.80;;;15.60;99.90;;;;;;5058011;28;20090;-75
2022/06/18 04:40:45;;;;;;;53.88;33.40;;;15.70;99.90;;;;;;5058267;28;20106;-76
2022/06/18 04:43:17;;;;;;;53.70;33.72;;;15.80;99.90;;;;;;5058212;28;20041;-76
2022/06/18 04:45:53;;;;;;;56.13;34.33;;;16.00;99.90;;;;;;5058816;28;20056;-76
2022/06/18 04:48:23;;;;;;;50.25;33.50;;;16.00;99.90;;;;;;5057272;28;20052;-77
2022/06/18 04:50:52;;;;;;;50.55;34.05;;;16.10;99.90;;;;;;5053794;28;20044;-77
2022/06/18 04:53:22;;;;;;;56.33;34.67;;;16.00;99.90;;;;;;5053558;28;20091;-77
2022/06/18 04:55:56;;;;;;;57.42;31.85;;;16.10;99.90;;;;;;5053991;28;20503;-77
2022/06/18 04:58:23;;;;;;;55.03;35.20;;;16.20;99.90;;;;;;5052869;28;20065;-77
2022/06/18 05:00:56;;;;;;;58.72;36.17;;;16.40;99.90;;;;;;5057177;28;20447;-77
2022/06/18 05:03:34;;;;;;;56.20;36.13;;;16.50;99.90;;;;;;5072731;28;20063;-77
2022/06/18 05:06:12;;;;;;;54.80;34.65;;;16.60;99.90;;;;;;5073429;28;20070;-77
2022/06/18 05:08:41;;;;;;;58.70;36.28;;;16.90;99.90;;;;;;5074229;28;20404;-77
2022/06/18 05:11:43;;;;;;;58.03;36.15;;;17.00;99.90;;;;;;4992764;28;20129;-77
2022/06/18 05:14:17;;;;;;;73.28;39.15;;;17.10;99.90;;;;;;5040813;28;20052;-77
2022/06/18 05:17:04;;;;;;;61.25;36.75;;;17.20;99.90;;;;;;5054502;28;20067;-77
2022/06/18 05:19:35;;;;;;;55.53;35.72;;;17.20;99.90;;;;;;5052391;28;20053;-78
2022/06/18 05:22:05;;;;;;;61.83;35.53;;;17.30;99.90;;;;;;5052736;28;20045;-77
2022/06/18 05:24:35;;;;;;;57.45;36.70;;;17.40;99.90;;;;;;5052279;28;20044;-77
2022/06/18 05:27:20;;;;;;;57.35;34.90;;;17.40;99.90;;;;;;5053286;28;20045;-77
2022/06/18 05:29:48;;;;;;;64.53;36.25;;;17.40;99.90;;;;;;5053042;28;20132;-77
2022/06/18 05:32:16;;;;;;;60.72;36.80;;;17.40;99.90;;;;;;5052984;28;20040;-77
2022/06/18 05:34:44;;;;;;;64.40;39.25;;;17.50;99.90;;;;;;5052371;28;20454;-77
2022/06/18 05:37:14;;;;;;;66.47;40.30;;;17.60;99.90;;;;;;5052874;28;20045;-77
2022/06/18 05:39:43;;;;;;;73.93;42.75;;;17.60;99.90;;;;;;5051831;28;20053;-77
2022/06/18 05:42:11;;;;;;;73.10;44.97;;;17.70;99.90;;;;;;5052062;28;20041;-76
2022/06/18 05:44:38;;;;;;;75.00;45.90;;;17.80;99.90;;;;;;5052496;28;20741;-77
2022/06/18 05:47:14;;;;;;;75.07;45.47;;;17.90;99.90;;;;;;5052850;28;20049;-77
2022/06/18 05:49:43;;;;;;;75.32;46.13;;;18.20;99.90;;;;;;5052754;28;20083;-77
2022/06/18 05:52:11;;;;;;;75.03;44.03;;;18.50;99.90;;;;;;5053058;28;20041;-77
2022/06/18 05:54:38;;;;;;;69.95;43.33;;;18.90;99.90;;;;;;5053558;28;20041;-77
2022/06/18 05:57:26;;;;;;;67.72;42.53;;;19.40;99.90;;;;;;5054082;28;20067;-77
2022/06/18 06:00:23;;;;;;;68.28;41.47;;;20.40;99.90;;;;;;5052949;28;20107;-77
2022/06/18 06:02:53;;;;;;;71.28;43.90;;;21.00;1.00;;;;;;5052502;28;20075;-77
2022/06/18 06:05:20;;;;;;;65.25;43.08;;;21.20;1.00;;;;;;5051993;28;20056;-77
2022/06/18 06:07:50;;;;;;;67.90;43.00;;;21.30;99.90;;;;;;5051864;28;20053;-78
2022/06/18 06:13:10;;;;;;;69.70;43.00;;;21.00;99.90;;;;;;5049073;28;20407;-77
2022/06/18 06:15:39;;;;;;;70.43;43.88;;;21.20;99.90;;;;;;5051154;28;20052;-76
2022/06/18 06:18:07;;;;;;;69.40;42.03;;;21.70;99.90;;;;;;5055046;28;20037;-78
2022/06/18 06:20:38;;;;;;;72.10;41.83;;;22.10;99.90;;;;;;5057067;28;20132;-77
2022/06/18 06:23:05;;;;;;;69.65;42.53;;;22.60;99.90;;;;;;5058191;28;20072;-75
2022/06/18 06:25:33;;;;;;;75.70;42.85;;;22.60;95.30;;;;;;5057085;28;20508;-76
2022/06/18 06:28:00;;;;;;;73.38;42.28;;;22.80;1.00;;;;;;5057620;28;20091;-78
2022/06/18 06:30:29;;;;;;;69.97;41.47;;;23.00;99.90;;;;;;5057602;28;20040;-77
2022/06/18 06:32:56;;;;;;;75.78;41.22;;;23.10;93.20;;;;;;5056424;28;20055;-77
2022/06/18 06:35:24;;;;;;;69.35;34.60;;;23.50;1.00;;;;;;5056489;28;20068;-77
2022/06/18 06:37:51;;;;;;;80.38;36.90;;;23.30;1.00;;;;;;5056778;28;20040;-76
2022/06/18 06:40:19;;;;;;;69.72;32.28;;;23.30;99.90;;;;;;5057269;28;20073;-77
2022/06/18 06:42:49;;;;;;;71.18;30.55;;;23.10;99.90;;;;;;5052501;28;20496;-76
2022/06/18 06:45:18;;;;;;;74.32;31.58;;;22.70;99.90;;;;;;5056935;28;20056;-77
2022/06/18 06:47:47;;;;;;;74.47;31.77;;;22.60;1.00;;;;;;5056675;28;20033;-76
2022/06/18 06:50:17;;;;;;;64.93;26.67;;;22.90;1.00;;;;;;5052790;28;20072;-77
2022/06/18 06:52:45;;;;;;;59.67;26.23;;;23.10;99.90;;;;;;5055727;28;20115;-78
2022/06/18 06:58:00;;;;;;;45.75;21.25;;;23.30;99.90;;;;;;5052962;28;20056;-78
2022/06/18 07:00:28;;;;;;;47.97;20.70;;;23.20;99.90;;;;;;5060156;28;20041;-78
2022/06/18 07:02:57;;;;;;;48.25;20.65;;;23.30;99.90;;;;;;5064078;28;20118;-78
2022/06/18 07:05:25;;;;;;;26.05;13.38;;;23.60;99.90;;;;;;5063912;28;20037;-77
2022/06/18 07:07:52;;;;;;;29.95;15.23;;;23.90;99.90;;;;;;5059780;28;20052;-78
2022/06/18 07:10:20;;;;;;;20.25;11.35;;;23.90;99.90;;;;;;5060265;28;20102;-78
2022/06/18 07:12:47;;;;;;;13.95;8.23;;;23.80;99.90;;;;;;5062193;28;20094;-78
2022/06/18 07:15:14;;;;;;;12.27;6.75;;;23.60;73.80;;;;;;5060080;28;20044;-78
2022/06/18 07:17:42;;;;;;;12.55;6.82;;;23.60;52.40;;;;;;5058467;28;20438;-78
2022/06/18 07:20:15;;;;;;;14.18;6.93;;;23.50;38.90;;;;;;5058378;28;20103;-78
2022/06/18 07:22:43;;;;;;;15.88;7.10;;;23.80;13.50;;;;;;5060533;28;20044;-78
2022/06/18 07:25:13;;;;;;;12.82;6.28;;;23.90;1.40;;;;;;5055945;28;20127;-77
2022/06/18 07:27:41;;;;;;;12.52;6.88;;;23.80;1.00;;;;;;5060531;28;20037;-78
2022/06/18 07:30:10;;;;;;;13.93;6.82;;;23.80;35.30;;;;;;5057811;28;20037;-77
2022/06/18 07:32:43;;;;;;;11.98;6.53;;;23.90;1.00;;;;;;5061458;28;20091;-79
2022/06/18 07:35:17;;;;;;;11.40;6.47;;;23.90;1.00;;;;;;5061569;28;20084;-78
2022/06/18 07:37:44;;;;;;;18.33;7.68;;;23.70;1.00;;;;;;5059878;28;20045;-80
2022/06/18 07:40:13;;;;;;;13.40;6.57;;;23.60;1.00;;;;;;5058913;28;20049;-77
2022/06/18 07:42:42;;;;;;;11.50;6.20;;;23.70;1.00;;;;;;5056225;28;20132;-77
2022/06/18 07:45:15;;;;;;;12.05;6.63;;;23.70;1.00;;;;;;5058705;28;20132;-76
2022/06/18 07:47:42;;;;;;;12.35;5.70;;;23.60;1.00;;;;;;5068388;28;20040;-78
2022/06/18 07:50:12;;;;;;;11.07;5.72;;;23.80;1.00;;;;;;5068778;28;20052;-78
2022/06/18 07:52:40;;;;;;;9.90;4.80;;;24.00;1.00;;;;;;5067932;28;20458;-79
2022/06/18 07:55:11;;;;;;;11.30;6.13;;;23.90;1.00;;;;;;5067801;28;20049;-78
2022/06/18 08:00:09;;;;;;;9.20;5.32;;;24.40;1.00;;;;;;5098968;28;20047;-73
2022/06/18 08:02:42;;;;;;;11.35;5.93;;;24.70;97.90;;;;;;5101530;28;20047;-75
2022/06/18 08:05:12;;;;;;;8.88;4.22;;;24.80;99.90;;;;;;5103873;28;20038;-74
2022/06/18 08:07:40;;;;;;;7.70;4.03;;;25.00;38.90;;;;;;5102653;28;20036;-74
2022/06/18 08:10:08;;;;;;;8.00;5.07;;;25.10;77.50;;;;;;5080861;28;20051;-75
2022/06/18 08:12:36;;;;;;;9.85;5.22;;;25.30;99.90;;;;;;5070584;28;20048;-73
2022/06/18 08:15:05;;;;;;;8.05;5.30;;;25.30;1.00;;;;;;5079406;28;20048;-75
2022/06/18 08:17:32;;;;;;;11.40;6.25;;;25.20;1.00;;;;;;5075802;28;20048;-74
2022/06/18 08:19:59;;;;;;;6.22;3.72;;;25.10;1.00;;;;;;5076634;28;20038;-76
2022/06/18 08:22:29;;;;;;;5.65;3.78;;;25.10;1.00;;;;;;5077286;28;20437;-75
2022/06/18 08:24:57;;;;;;;12.98;5.53;;;25.20;1.00;;;;;;5076081;28;20060;-74
2022/06/18 08:27:24;;;;;;;9.45;4.38;;;25.30;1.00;;;;;;5077531;28;20086;-73
2022/06/18 08:29:52;;;;;;;6.18;4.10;;;25.40;1.00;;;;;;5063037;28;20052;-73
2022/06/18 08:32:19;;;;;;;8.90;5.28;;;25.30;1.00;;;;;;5077207;28;20044;-74
2022/06/18 08:34:46;;;;;;;8.13;3.25;;;25.40;1.00;;;;;;5076599;28;20060;-74
2022/06/18 08:37:14;;;;;;;4.97;3.47;;;25.40;1.00;;;;;;5055875;28;20087;-73
2022/06/18 08:39:43;;;;;;;5.57;3.58;;;25.60;1.00;;;;;;5079351;28;20483;-73
2022/06/18 08:42:32;;;;;;;9.82;5.53;;;25.90;1.00;;;;;;5075852;28;20474;-74
2022/06/18 08:45:26;;;;;;;9.32;4.90;;;26.10;1.00;;;;;;5076558;28;20105;-74
2022/06/18 08:48:15;;;;;;;7.20;3.75;;;26.30;1.00;;;;;;5070853;28;20032;-73
2022/06/18 08:50:52;;;;;;;8.80;3.85;;;26.60;1.00;;;;;;5094937;28;20067;-74
2022/06/18 08:53:44;;;;;;;10.50;4.97;;;26.70;1.00;;;;;;5076525;28;20049;-75
2022/06/18 08:56:19;;;;;;;9.75;6.53;;;26.70;1.00;;;;;;5092459;28;20117;-74
2022/06/18 08:58:56;;;;;;;10.50;5.05;;;26.50;1.00;;;;;;5075188;28;20048;-74
2022/06/18 09:01:28;;;;;;;7.72;4.90;;;26.80;1.00;;;;;;5072092;28;20057;-74
2022/06/18 09:04:09;;;;;;;7.90;4.78;;;26.90;1.00;;;;;;5057672;28;20040;-74
2022/06/18 09:06:58;;;;;;;4.93;3.00;;;27.00;1.00;;;;;;5057389;28;20499;-74
2022/06/18 09:09:36;;;;;;;4.97;2.75;;;27.20;1.00;;;;;;5058363;28;20052;-74
2022/06/18 09:12:10;;;;;;;6.05;3.15;;;27.20;1.00;;;;;;5064238;28;20106;-75
2022/06/18 09:14:43;;;;;;;5.57;3.33;;;26.80;1.00;;;;;;5074828;28;20045;-74
2022/06/18 09:17:16;;;;;;;4.55;2.88;;;26.40;1.00;;;;;;5057047;28;20483;-73
2022/06/18 09:19:45;;;;;;;9.20;3.30;;;26.30;1.00;;;;;;5074823;28;20074;-75
2022/06/18 09:22:19;;;;;;;6.03;2.70;;;26.10;1.00;;;;;;5060351;28;20063;-75
2022/06/18 09:24:48;;;;;;;4.22;3.03;;;25.50;1.00;;;;;;5089074;28;20105;-76
2022/06/18 09:27:22;;;;;;;5.97;2.88;;;25.20;1.00;;;;;;5081222;28;20398;-75
2022/06/18 09:29:55;;;;;;;4.20;2.70;;;25.20;1.00;;;;;;5075554;28;20510;-75
2022/06/18 09:32:27;;;;;;;5.38;2.97;;;25.40;1.00;;;;;;5075860;28;20490;-74
2022/06/18 09:35:02;;;;;;;4.85;3.10;;;25.60;1.00;;;;;;5057466;28;20110;-74
2022/06/18 09:37:36;;;;;;;3.65;2.63;;;25.70;1.00;;;;;;5072142;28;20131;-74
2022/06/18 09:40:12;;;;;;;8.07;4.22;;;25.80;1.00;;;;;;5072477;28;20743;-74
2022/06/18 09:42:46;;;;;;;4.85;3.25;;;26.10;1.00;;;;;;5074871;28;20123;-73
2022/06/18 09:45:19;;;;;;;6.70;3.45;;;26.50;1.00;;;;;;5076958;28;20082;-75
2022/06/18 09:47:48;;;;;;;7.00;3.20;;;26.60;1.00;;;;;;5057035;28;20051;-74
2022/06/18 09:50:20;;;;;;;5.43;3.53;;;26.70;1.00;;;;;;5059473;28;20044;-74
2022/06/18 09:52:51;;;;;;;3.28;2.50;;;26.30;1.00;;;;;;5076832;28;20059;-73
2022/06/18 09:55:23;;;;;;;6.18;3.72;;;26.40;1.00;;;;;;5056394;28;20072;-73
2022/06/18 09:57:55;;;;;;;4.43;2.90;;;26.60;1.00;;;;;;5074381;28;20051;-76
2022/06/18 10:00:28;;;;;;;7.40;3.58;;;26.40;1.00;;;;;;5056872;28;20060;-75
2022/06/18 10:02:58;;;;;;;4.00;3.20;;;26.30;1.00;;;;;;5076578;28;20569;-75
2022/06/18 10:08:14;;;;;;;6.93;3.92;;;26.50;1.00;;;;;;5074677;28;20040;-74
2022/06/18 10:10:47;;;;;;;6.43;3.00;;;26.40;1.00;;;;;;5075922;28;20093;-75
2022/06/18 10:13:22;;;;;;;8.15;3.10;;;26.10;1.00;;;;;;5056757;28;20056;-75
2022/06/18 10:15:49;;;;;;;4.88;2.90;;;26.00;1.00;;;;;;5059497;28;20499;-74
2022/06/18 10:18:38;;;;;;;9.30;6.25;;;26.10;1.00;;;;;;5075288;28;20033;-74
2022/06/18 10:21:12;;;;;;;4.10;3.05;;;26.40;1.00;;;;;;5073552;28;20032;-75
2022/06/18 10:23:51;;;;;;;9.13;3.30;;;26.70;1.00;;;;;;5066249;28;20102;-74
2022/06/18 10:26:32;;;;;;;6.72;3.33;;;26.60;1.00;;;;;;5078463;28;20127;-75
2022/06/18 10:29:07;;;;;;;5.75;3.10;;;26.80;1.00;;;;;;5075173;28;20036;-73
2022/06/18 10:31:45;;;;;;;4.18;3.00;;;26.80;1.00;;;;;;5091437;28;20049;-74
2022/06/18 10:34:28;;;;;;;5.88;3.10;;;26.40;1.00;;;;;;5073233;28;20059;-74
2022/06/18 10:37:07;;;;;;;5.05;2.88;;;26.40;1.00;;;;;;5090889;28;20072;-74
2022/06/18 10:39:45;;;;;;;4.72;3.60;;;26.50;1.00;;;;;;5076090;28;20170;-74
2022/06/18 10:42:26;;;;;;;4.00;2.85;;;26.30;1.00;;;;;;5079719;28;20090;-75
2022/06/18 10:45:08;;;;;;;3.85;3.30;;;26.20;1.00;;;;;;5098086;28;20044;-74
2022/06/18 10:47:39;;;;;;;7.97;3.22;;;26.30;1.00;;;;;;5091018;28;20044;-74
2022/06/18 10:50:11;;;;;;;4.72;3.50;;;26.10;1.00;;;;;;5077336;28;20044;-74
2022/06/18 10:52:39;;;;;;;4.90;3.40;;;25.70;1.00;;;;;;5092969;28;20044;-74
2022/06/18 10:55:11;;;;;;;8.55;3.65;;;25.40;1.00;;;;;;5073980;28;20053;-74
2022/06/18 10:57:39;;;;;;;3.47;2.72;;;25.50;1.00;;;;;;5074162;28;20037;-74
2022/06/18 11:00:13;;;;;;;5.55;3.70;;;25.60;1.00;;;;;;5076079;28;20102;-74
2022/06/18 11:02:42;;;;;;;5.82;3.10;;;25.60;1.00;;;;;;5075202;28;20036;-74
2022/06/18 11:05:23;;;;;;;5.00;3.25;;;25.40;1.00;;;;;;5058143;28;20117;-74
2022/06/18 11:07:53;;;;;;;3.78;2.92;;;25.20;1.00;;;;;;5078216;28;20044;-74
2022/06/18 11:10:38;;;;;;;7.90;3.45;;;25.00;1.00;;;;;;5079016;28;20044;-73
2022/06/18 11:13:18;;;;;;;7.55;3.42;;;24.90;1.00;;;;;;5076238;28;20121;-73
2022/06/18 11:15:47;;;;;;;3.67;3.38;;;25.10;1.00;;;;;;5078048;28;20044;-74
2022/06/18 11:18:18;;;;;;;6.22;3.63;;;25.20;1.00;;;;;;5059321;28;20548;-74
2022/06/18 11:21:00;;;;;;;4.90;3.75;;;25.40;1.00;;;;;;5059033;28;20055;-74
2022/06/18 11:23:28;;;;;;;4.05;3.33;;;25.40;1.00;;;;;;5077688;28;20376;-75
2022/06/18 11:25:57;;;;;;;5.70;3.38;;;25.10;1.00;;;;;;5060544;28;20487;-76
2022/06/18 11:28:29;;;;;;;6.95;4.28;;;25.20;1.00;;;;;;5077644;28;20041;-74
2022/06/18 11:30:58;;;;;;;4.38;3.42;;;25.60;1.00;;;;;;5059271;28;20055;-74
2022/06/18 11:33:31;;;;;;;4.28;3.10;;;25.60;1.00;;;;;;5058487;28;20462;-74
2022/06/18 11:36:07;;;;;;;5.25;3.78;;;25.10;1.00;;;;;;5077353;28;20185;-75
2022/06/18 11:38:36;;;;;;;4.57;3.55;;;25.10;1.00;;;;;;5077123;28;20044;-75
2022/06/18 11:41:20;;;;;;;5.45;4.60;;;25.70;1.00;;;;;;5076441;28;20051;-75
2022/06/18 11:43:52;;;;;;;5.57;3.53;;;25.70;1.00;;;;;;5059141;28;20052;-73
2022/06/18 11:46:25;;;;;;;4.95;3.40;;;25.30;1.00;;;;;;5077371;28;20045;-74
2022/06/18 11:48:57;;;;;;;3.53;2.95;;;25.10;1.00;;;;;;5096167;28;20070;-74
2022/06/18 11:51:31;;;;;;;8.68;3.85;;;25.00;1.00;;;;;;5093068;28;20101;-74
2022/06/18 11:54:08;;;;;;;7.53;3.60;;;25.10;1.00;;;;;;5078971;28;20074;-74
2022/06/18 11:56:48;;;;;;;5.82;3.70;;;25.10;1.00;;;;;;5078352;28;20056;-74
2022/06/18 11:59:21;;;;;;;6.07;3.45;;;25.10;1.00;;;;;;5077396;28;20083;-75
2022/06/18 12:01:54;;;;;;;4.82;3.42;;;25.20;1.00;;;;;;5082016;28;20060;-74
2022/06/18 12:04:27;;;;;;;5.65;3.38;;;25.30;1.00;;;;;;5078496;28;20075;-73
2022/06/18 12:07:03;;;;;;;6.90;3.95;;;25.10;1.00;;;;;;5075043;28;20048;-72
2022/06/18 12:09:31;;;;;;;;;;;24.90;1.00;;;;;;5091390;28;20056;-74
2022/06/18 12:12:25;;;;;;;7.00;3.80;;;24.80;1.00;;;;;;5083935;28;19921;-73
2022/06/18 12:15:00;;;;;;;8.10;4.53;;;24.60;1.00;;;;;;5058251;28;20048;-74
2022/06/18 12:17:36;;;;;;;8.07;4.60;;;24.80;1.00;;;;;;5077101;28;20127;-74
2022/06/18 12:20:10;;;;;;;;;;;25.30;1.00;;;;;;5058550;28;20202;-73
2022/06/18 12:22:44;;;;;;;5.43;3.42;;;25.40;1.00;;;;;;5076381;28;19920;-75
2022/06/18 12:25:35;;;;;;;4.55;3.03;;;25.00;1.00;;;;;;5076791;28;20496;-75
2022/06/18 12:28:12;;;;;;;5.68;3.42;;;24.60;1.00;;;;;;5058257;28;20419;-74
2022/06/18 12:30:44;;;;;;;4.35;3.10;;;24.70;1.00;;;;;;5076063;28;20040;-74
2022/06/18 12:33:21;;;;;;;4.50;3.28;;;24.80;1.00;;;;;;5059377;28;20048;-75
2022/06/18 12:35:56;;;;;;;4.70;3.40;;;24.90;1.00;;;;;;5071947;28;20052;-74
2022/06/18 12:38:30;;;;;;;4.75;3.47;;;25.10;1.00;;;;;;5079820;28;20120;-74
2022/06/18 12:41:06;;;;;;;7.40;4.00;;;25.30;1.00;;;;;;5077219;28;20463;-72
2022/06/18 12:43:44;;;;;;;5.50;3.63;;;25.40;1.00;;;;;;5076948;28;20040;-75
2022/06/18 12:46:19;;;;;;;7.82;3.70;;;25.30;1.00;;;;;;5079342;28;20488;-75
2022/06/18 12:48:57;;;;;;;6.00;3.57;;;25.10;1.00;;;;;;5082297;28;20037;-75
2022/06/18 12:51:32;;;;;;;4.90;3.20;;;25.20;1.00;;;;;;5095326;28;20138;-74
2022/06/18 12:54:16;;;;;;;6.78;3.38;;;25.40;1.00;;;;;;5076975;28;20051;-74
2022/06/18 12:56:50;;;;;;;6.80;4.85;;;25.60;1.00;;;;;;5092935;28;20389;-74
2022/06/18 12:59:23;;;;;;;8.90;4.68;;;25.70;1.00;;;;;;5093407;28;20079;-73
2022/06/18 13:01:58;;;;;;;5.35;4.35;;;25.10;1.00;;;;;;5086055;28;20052;-74
2022/06/18 13:04:41;;;;;;;7.22;4.60;;;25.00;1.00;;;;;;5078615;28;20149;-72
2022/06/18 13:07:18;;;;;;;4.97;3.88;;;25.30;1.00;;;;;;5060183;28;20041;-71
2022/06/18 13:09:55;;;;;;;7.78;3.92;;;25.40;1.00;;;;;;5059298;28;20411;-71
2022/06/18 13:12:39;;;;;;;6.55;3.45;;;25.10;1.00;;;;;;5077611;28;20040;-73
2022/06/18 13:15:18;;;;;;;4.55;3.13;;;25.00;1.00;;;;;;5058336;28;20060;-71
2022/06/18 13:17:50;;;;;;;5.75;3.90;;;24.90;1.00;;;;;;5059813;28;20055;-72
2022/06/18 13:20:24;;;;;;;4.60;3.45;;;24.70;1.00;;;;;;5058160;28;20045;-72
2022/06/18 13:22:53;;;;;;;7.95;4.00;;;24.70;1.00;;;;;;5076588;28;20049;-72
2022/06/18 13:28:16;;;;;;;5.13;4.28;;;24.80;1.00;;;;;;5056739;28;20067;-72